sensor_id;sensor_type;location;lat;lon;timestamp;pressure;altitude;pressure_sealevel;temperature;humidity
56414;BME280;42318;48.452;19.526;2022-07-21T00:02:10;98603.41;;;25.03;43.30
56414;BME280;42318;48.452;19.526;2022-07-21T00:09:41;98602.88;;;25.01;43.29
56414;BME280;42318;48.452;19.526;2022-07-21T00:17:12;98604.50;;;24.97;43.30
56414;BME280;42318;48.452;19.526;2022-07-21T00:24:42;98603.16;;;24.94;43.27
56414;BME280;42318;48.452;19.526;2022-07-21T00:32:13;98606.72;;;24.95;43.14
56414;BME280;42318;48.452;19.526;2022-07-21T00:39:44;98601.28;;;24.90;43.61
56414;BME280;42318;48.452;19.526;2022-07-21T00:47:14;98596.38;;;24.87;43.28
56414;BME280;42318;48.452;19.526;2022-07-21T00:54:46;98603.47;;;24.88;44.11
56414;BME280;42318;48.452;19.526;2022-07-21T01:02:16;98597.22;;;24.82;43.92
56414;BME280;42318;48.452;19.526;2022-07-21T01:09:47;98608.16;;;24.87;44.16
56414;BME280;42318;48.452;19.526;2022-07-21T01:17:19;98602.91;;;24.91;44.09
56414;BME280;42318;48.452;19.526;2022-07-21T01:24:50;98607.03;;;24.88;43.91
56414;BME280;42318;48.452;19.526;2022-07-21T01:32:20;98592.00;;;24.86;43.71
56414;BME280;42318;48.452;19.526;2022-07-21T01:39:51;98598.56;;;24.85;43.92
56414;BME280;42318;48.452;19.526;2022-07-21T01:47:41;98593.66;;;24.82;43.73
56414;BME280;42318;48.452;19.526;2022-07-21T01:55:12;98597.50;;;24.81;43.94
56414;BME280;42318;48.452;19.526;2022-07-21T02:02:43;98587.38;;;24.81;43.98
56414;BME280;42318;48.452;19.526;2022-07-21T02:10:14;98585.72;;;24.80;43.87
56414;BME280;42318;48.452;19.526;2022-07-21T02:17:45;98583.28;;;24.79;43.63
56414;BME280;42318;48.452;19.526;2022-07-21T02:25:16;98585.47;;;24.77;43.76
56414;BME280;42318;48.452;19.526;2022-07-21T02:32:47;98583.84;;;24.76;44.03
56414;BME280;42318;48.452;19.526;2022-07-21T02:40:18;98582.22;;;24.74;43.80
56414;BME280;42318;48.452;19.526;2022-07-21T02:48:06;98582.78;;;24.71;44.12
56414;BME280;42318;48.452;19.526;2022-07-21T02:55:38;98571.53;;;24.73;44.02
56414;BME280;42318;48.452;19.526;2022-07-21T03:03:09;98579.47;;;24.74;44.08
56414;BME280;42318;48.452;19.526;2022-07-21T03:10:40;98591.00;;;24.71;44.27
56414;BME280;42318;48.452;19.526;2022-07-21T03:18:11;98587.69;;;24.69;44.01
56414;BME280;42318;48.452;19.526;2022-07-21T03:25:42;98592.09;;;24.65;44.41
56414;BME280;42318;48.452;19.526;2022-07-21T03:33:12;98588.25;;;24.66;44.48
56414;BME280;42318;48.452;19.526;2022-07-21T03:48:09;98584.94;;;24.69;44.49
56414;BME280;42318;48.452;19.526;2022-07-21T03:55:40;98592.63;;;24.72;44.52
56414;BME280;42318;48.452;19.526;2022-07-21T04:03:11;98590.44;;;24.69;44.40
56414;BME280;42318;48.452;19.526;2022-07-21T04:10:43;98588.78;;;24.68;44.62
56414;BME280;42318;48.452;19.526;2022-07-21T04:18:13;98606.88;;;24.74;44.97
56414;BME280;42318;48.452;19.526;2022-07-21T04:25:44;98606.88;;;24.74;44.89
56414;BME280;42318;48.452;19.526;2022-07-21T04:33:15;98607.16;;;24.73;45.54
56414;BME280;42318;48.452;19.526;2022-07-21T04:40:46;98607.41;;;24.77;45.09
56414;BME280;42318;48.452;19.526;2022-07-21T04:48:17;98594.22;;;24.79;45.37
56414;BME280;42318;48.452;19.526;2022-07-21T04:55:47;98599.72;;;24.79;45.41
56414;BME280;42318;48.452;19.526;2022-07-21T05:03:18;98595.34;;;24.78;45.09
56414;BME280;42318;48.452;19.526;2022-07-21T05:10:49;98605.19;;;24.79;45.08
56414;BME280;42318;48.452;19.526;2022-07-21T05:18:20;98601.88;;;24.82;45.33
56414;BME280;42318;48.452;19.526;2022-07-21T05:25:50;98605.44;;;24.82;45.00
56414;BME280;42318;48.452;19.526;2022-07-21T05:33:21;98606.53;;;24.81;45.37
56414;BME280;42318;48.452;19.526;2022-07-21T05:40:52;98610.63;;;24.84;44.83
56414;BME280;42318;48.452;19.526;2022-07-21T05:48:22;98600.78;;;24.83;44.87
56414;BME280;42318;48.452;19.526;2022-07-21T05:55:53;98602.13;;;24.85;45.34
56414;BME280;42318;48.452;19.526;2022-07-21T06:03:24;98598.81;;;24.88;44.95
56414;BME280;42318;48.452;19.526;2022-07-21T06:10:55;98593.63;;;24.87;45.36
56414;BME280;42318;48.452;19.526;2022-07-21T06:18:26;98603.72;;;24.91;44.96
56414;BME280;42318;48.452;19.526;2022-07-21T06:25:56;98598.25;;;24.91;45.50
56414;BME280;42318;48.452;19.526;2022-07-21T06:33:27;98603.72;;;24.91;45.26
56414;BME280;42318;48.452;19.526;2022-07-21T06:40:59;98603.44;;;24.93;45.64
56414;BME280;42318;48.452;19.526;2022-07-21T06:48:30;98609.75;;;24.93;45.79
56414;BME280;42318;48.452;19.526;2022-07-21T06:56:01;98600.16;;;24.91;45.92
56414;BME280;42318;48.452;19.526;2022-07-21T07:03:32;98599.59;;;24.94;45.78
56414;BME280;42318;48.452;19.526;2022-07-21T07:11:03;98589.97;;;24.96;45.77
56414;BME280;42318;48.452;19.526;2022-07-21T07:18:34;98594.66;;;24.96;46.11
56414;BME280;42318;48.452;19.526;2022-07-21T07:26:07;98594.66;;;24.96;46.18
56414;BME280;42318;48.452;19.526;2022-07-21T07:33:38;98579.84;;;24.97;46.33
56414;BME280;42318;48.452;19.526;2022-07-21T07:41:09;98575.19;;;24.97;46.31
56414;BME280;42318;48.452;19.526;2022-07-21T07:48:41;98570.25;;;24.99;46.67
56414;BME280;42318;48.452;19.526;2022-07-21T07:56:12;98567.22;;;25.01;46.69
56414;BME280;42318;48.452;19.526;2022-07-21T08:03:43;98566.94;;;25.02;47.55
56414;BME280;42318;48.452;19.526;2022-07-21T08:11:13;98551.84;;;25.05;47.69
56414;BME280;42318;48.452;19.526;2022-07-21T08:18:45;98562.22;;;25.08;47.42
56414;BME280;42318;48.452;19.526;2022-07-21T08:26:16;98549.34;;;25.09;47.90
56414;BME280;42318;48.452;19.526;2022-07-21T08:33:47;98560.31;;;25.09;48.06
56414;BME280;42318;48.452;19.526;2022-07-21T08:41:18;98541.13;;;25.09;48.07
56414;BME280;42318;48.452;19.526;2022-07-21T08:48:49;98536.97;;;25.11;48.14
56414;BME280;42318;48.452;19.526;2022-07-21T08:56:20;98524.09;;;25.12;48.36
56414;BME280;42318;48.452;19.526;2022-07-21T09:03:51;98535.59;;;25.14;48.68
56414;BME280;42318;48.452;19.526;2022-07-21T09:11:23;98523.25;;;25.16;47.99
56414;BME280;42318;48.452;19.526;2022-07-21T09:18:54;98508.72;;;25.16;48.29
56414;BME280;42318;48.452;19.526;2022-07-21T09:26:25;98503.25;;;25.16;48.22
56414;BME280;42318;48.452;19.526;2022-07-21T09:33:58;98485.97;;;25.15;48.13
56414;BME280;42318;48.452;19.526;2022-07-21T09:41:28;98488.66;;;25.20;47.79
56414;BME280;42318;48.452;19.526;2022-07-21T09:49:00;98476.59;;;25.21;48.05
56414;BME280;42318;48.452;19.526;2022-07-21T09:56:35;98466.16;;;25.23;47.53
56414;BME280;42318;48.452;19.526;2022-07-21T10:04:06;98462.28;;;25.24;47.59
56414;BME280;42318;48.452;19.526;2022-07-21T10:11:39;98453.78;;;25.26;47.53
56414;BME280;42318;48.452;19.526;2022-07-21T10:19:19;98452.38;;;25.28;47.81
56414;BME280;42318;48.452;19.526;2022-07-21T10:27:12;98443.03;;;25.29;47.64
56414;BME280;42318;48.452;19.526;2022-07-21T10:34:44;98438.38;;;25.30;47.24
56414;BME280;42318;48.452;19.526;2022-07-21T10:42:16;98436.69;;;25.34;47.48
56414;BME280;42318;48.452;19.526;2022-07-21T10:50:00;98425.41;;;25.35;47.56
56414;BME280;42318;48.452;19.526;2022-07-21T10:57:31;98418.81;;;25.36;47.32
56414;BME280;42318;48.452;19.526;2022-07-21T11:05:05;98413.34;;;25.36;47.40
56414;BME280;42318;48.452;19.526;2022-07-21T11:12:56;98398.22;;;25.39;47.35
56414;BME280;42318;48.452;19.526;2022-07-21T11:20:27;98401.47;;;25.41;46.99
56414;BME280;42318;48.452;19.526;2022-07-21T11:27:57;98389.41;;;25.42;47.11
56414;BME280;42318;48.452;19.526;2022-07-21T11:35:28;98382.00;;;25.43;47.23
56414;BME280;42318;48.452;19.526;2022-07-21T11:42:59;98378.13;;;25.44;47.45
56414;BME280;42318;48.452;19.526;2022-07-21T11:50:29;98370.13;;;25.47;47.41
56414;BME280;42318;48.452;19.526;2022-07-21T11:58:01;98355.91;;;25.45;47.47
56414;BME280;42318;48.452;19.526;2022-07-21T12:05:32;98358.56;;;25.50;47.41
56414;BME280;42318;48.452;19.526;2022-07-21T12:13:06;98353.91;;;25.51;47.17
56414;BME280;42318;48.452;19.526;2022-07-21T12:20:38;98336.03;;;25.53;47.36
56414;BME280;42318;48.452;19.526;2022-07-21T12:28:12;98329.44;;;25.54;47.61
56414;BME280;42318;48.452;19.526;2022-07-21T12:36:05;98335.44;;;25.56;47.46
56414;BME280;42318;48.452;19.526;2022-07-21T12:43:37;98326.09;;;25.57;47.46
56414;BME280;42318;48.452;19.526;2022-07-21T12:58:50;98322.50;;;25.62;47.14
56414;BME280;42318;48.452;19.526;2022-07-21T13:06:21;98315.38;;;25.61;47.32
56414;BME280;42318;48.452;19.526;2022-07-21T13:13:52;98311.50;;;25.62;47.32
56414;BME280;42318;48.452;19.526;2022-07-21T13:21:22;98313.66;;;25.65;47.57
56414;BME280;42318;48.452;19.526;2022-07-21T13:28:54;98311.47;;;25.67;47.45
56414;BME280;42318;48.452;19.526;2022-07-21T13:36:24;98306.81;;;25.67;47.07
56414;BME280;42318;48.452;19.526;2022-07-21T13:43:55;98296.63;;;25.68;46.90
56414;BME280;42318;48.452;19.526;2022-07-21T13:51:26;98298.69;;;25.76;47.36
56414;BME280;42318;48.452;19.526;2022-07-21T13:58:57;98303.72;;;25.88;47.25
56414;BME280;42318;48.452;19.526;2022-07-21T14:06:28;98282.19;;;25.95;47.31
56414;BME280;42318;48.452;19.526;2022-07-21T14:13:58;98284.81;;;26.05;47.27
56414;BME280;42318;48.452;19.526;2022-07-21T14:21:30;98288.78;;;26.13;47.11
56414;BME280;42318;48.452;19.526;2022-07-21T14:29:01;98293.06;;;26.19;47.07
56414;BME280;42318;48.452;19.526;2022-07-21T14:36:33;98286.38;;;26.25;47.00
56414;BME280;42318;48.452;19.526;2022-07-21T14:44:04;98278.66;;;26.27;47.07
56414;BME280;42318;48.452;19.526;2022-07-21T14:51:35;98268.69;;;26.31;46.71
56414;BME280;42318;48.452;19.526;2022-07-21T14:59:05;98280.13;;;26.38;46.85
56414;BME280;42318;48.452;19.526;2022-07-21T15:06:36;98271.28;;;26.41;46.81
56414;BME280;42318;48.452;19.526;2022-07-21T15:14:07;98262.22;;;26.41;46.68
56414;BME280;42318;48.452;19.526;2022-07-21T15:21:38;98265.09;;;26.49;46.87
56414;BME280;42318;48.452;19.526;2022-07-21T15:29:09;98261.22;;;26.50;47.13
56414;BME280;42318;48.452;19.526;2022-07-21T15:36:39;98251.56;;;26.53;46.88
56414;BME280;42318;48.452;19.526;2022-07-21T15:44:11;98240.28;;;26.54;46.79
56414;BME280;42318;48.452;19.526;2022-07-21T15:51:43;98245.16;;;26.57;46.79
56414;BME280;42318;48.452;19.526;2022-07-21T15:59:14;98247.28;;;26.60;46.81
56414;BME280;42318;48.452;19.526;2022-07-21T16:07:04;98247.28;;;26.60;47.03
56414;BME280;42318;48.452;19.526;2022-07-21T16:14:36;98254.94;;;26.64;46.84
56414;BME280;42318;48.452;19.526;2022-07-21T16:22:07;98255.44;;;26.66;46.87
56414;BME280;42318;48.452;19.526;2022-07-21T16:29:37;98259.00;;;26.66;46.95
56414;BME280;42318;48.452;19.526;2022-07-21T16:37:08;98263.06;;;26.69;47.09
56414;BME280;42318;48.452;19.526;2022-07-21T16:44:40;98267.13;;;26.71;47.12
56414;BME280;42318;48.452;19.526;2022-07-21T16:52:11;98265.19;;;26.72;46.94
56414;BME280;42318;48.452;19.526;2022-07-21T16:59:42;98271.50;;;26.72;47.12
56414;BME280;42318;48.452;19.526;2022-07-21T17:07:13;98270.09;;;26.75;46.74
56414;BME280;42318;48.452;19.526;2022-07-21T17:14:44;98268.16;;;26.75;46.85
56414;BME280;42318;48.452;19.526;2022-07-21T17:22:14;98267.03;;;26.76;46.94
56414;BME280;42318;48.452;19.526;2022-07-21T17:29:45;98266.72;;;26.78;47.12
56414;BME280;42318;48.452;19.526;2022-07-21T17:37:16;98272.34;;;26.73;47.00
56414;BME280;42318;48.452;19.526;2022-07-21T17:44:47;98278.75;;;26.68;47.35
56414;BME280;42318;48.452;19.526;2022-07-21T17:52:17;98286.78;;;26.65;47.24
56414;BME280;42318;48.452;19.526;2022-07-21T17:59:48;98296.75;;;26.60;47.27
56414;BME280;42318;48.452;19.526;2022-07-21T18:07:19;98301.44;;;26.60;47.58
56414;BME280;42318;48.452;19.526;2022-07-21T18:14:50;98307.44;;;26.62;48.31
56414;BME280;42318;48.452;19.526;2022-07-21T18:22:21;98318.63;;;26.66;47.87
56414;BME280;42318;48.452;19.526;2022-07-21T18:29:51;98326.78;;;26.71;47.81
56414;BME280;42318;48.452;19.526;2022-07-21T18:37:22;98338.28;;;26.73;47.71
56414;BME280;42318;48.452;19.526;2022-07-21T18:44:53;98355.28;;;26.75;48.23
56414;BME280;42318;48.452;19.526;2022-07-21T18:52:23;98370.88;;;26.79;47.97
56414;BME280;42318;48.452;19.526;2022-07-21T19:00:05;98368.63;;;26.81;47.89
56414;BME280;42318;48.452;19.526;2022-07-21T19:07:38;98388.09;;;26.85;47.64
56414;BME280;42318;48.452;19.526;2022-07-21T19:15:12;98395.22;;;26.86;47.63
56414;BME280;42318;48.452;19.526;2022-07-21T19:22:45;98399.59;;;26.87;47.63
56414;BME280;42318;48.452;19.526;2022-07-21T19:30:17;98401.22;;;26.88;47.71
56414;BME280;42318;48.452;19.526;2022-07-21T19:37:50;98407.56;;;26.88;47.81
56414;BME280;42318;48.452;19.526;2022-07-21T19:45:21;98416.31;;;26.90;47.74
56414;BME280;42318;48.452;19.526;2022-07-21T19:52:52;98418.78;;;26.92;47.46
56414;BME280;42318;48.452;19.526;2022-07-21T20:00:23;98425.38;;;26.91;47.49
56414;BME280;42318;48.452;19.526;2022-07-21T20:07:55;98418.78;;;26.92;47.51
56414;BME280;42318;48.452;19.526;2022-07-21T20:15:26;98416.84;;;26.92;47.53
56414;BME280;42318;48.452;19.526;2022-07-21T20:22:57;98416.03;;;26.92;47.53
56414;BME280;42318;48.452;19.526;2022-07-21T20:30:27;98427.03;;;26.92;47.53
56414;BME280;42318;48.452;19.526;2022-07-21T20:37:59;98423.97;;;26.94;47.41
56414;BME280;42318;48.452;19.526;2022-07-21T20:45:30;98430.44;;;26.84;39.66
56414;BME280;42318;48.452;19.526;2022-07-21T20:53:05;98426.84;;;26.70;39.73
56414;BME280;42318;48.452;19.526;2022-07-21T21:00:36;98432.81;;;26.58;40.31
56414;BME280;42318;48.452;19.526;2022-07-21T21:08:07;98432.31;;;26.56;37.71
56414;BME280;42318;48.452;19.526;2022-07-21T21:15:38;98425.06;;;26.46;39.06
56414;BME280;42318;48.452;19.526;2022-07-21T21:23:09;98423.47;;;26.40;39.45
56414;BME280;42318;48.452;19.526;2022-07-21T21:30:40;98418.28;;;26.39;39.13
56414;BME280;42318;48.452;19.526;2022-07-21T21:38:10;98430.91;;;26.40;39.39
56414;BME280;42318;48.452;19.526;2022-07-21T21:45:41;98426.31;;;26.35;39.10
56414;BME280;42318;48.452;19.526;2022-07-21T21:53:12;98431.84;;;26.30;39.47
56414;BME280;42318;48.452;19.526;2022-07-21T22:00:43;98432.22;;;26.23;38.33
56414;BME280;42318;48.452;19.526;2022-07-21T22:08:14;98429.78;;;26.22;40.07
56414;BME280;42318;48.452;19.526;2022-07-21T22:15:44;98426.53;;;26.20;40.06
56414;BME280;42318;48.452;19.526;2022-07-21T22:23:15;98434.84;;;26.15;39.91
56414;BME280;42318;48.452;19.526;2022-07-21T22:30:46;98441.53;;;26.09;38.56
56414;BME280;42318;48.452;19.526;2022-07-21T22:38:16;98442.94;;;26.06;39.08
56414;BME280;42318;48.452;19.526;2022-07-21T22:45:47;98452.28;;;26.05;40.09
56414;BME280;42318;48.452;19.526;2022-07-21T22:53:18;98450.41;;;26.01;39.58
56414;BME280;42318;48.452;19.526;2022-07-21T23:00:49;98455.06;;;26.00;40.53
56414;BME280;42318;48.452;19.526;2022-07-21T23:08:19;98454.25;;;25.99;39.90
56414;BME280;42318;48.452;19.526;2022-07-21T23:15:50;98453.22;;;25.95;40.83
56414;BME280;42318;48.452;19.526;2022-07-21T23:23:21;98456.25;;;25.94;40.50
56414;BME280;42318;48.452;19.526;2022-07-21T23:30:51;98455.72;;;25.92;40.15
56414;BME280;42318;48.452;19.526;2022-07-21T23:38:22;98455.81;;;25.87;39.70
56414;BME280;42318;48.452;19.526;2022-07-21T23:45:53;98456.31;;;25.89;39.80
56414;BME280;42318;48.452;19.526;2022-07-21T23:53:24;98453.06;;;25.87;40.43
